createdAt,value
2016-09-28T00:00:27.729Z,0
2016-09-28T00:01:27.722Z,0
2016-09-28T00:02:27.710Z,0
2016-09-28T00:03:27.694Z,0
2016-09-28T00:04:28.000Z,0
2016-09-28T00:05:27.680Z,0
2016-09-28T00:06:27.657Z,0
2016-09-28T00:07:27.650Z,0
2016-09-28T00:08:27.640Z,0
2016-09-28T00:09:27.642Z,0
2016-09-28T00:10:27.622Z,0
2016-09-28T00:11:27.608Z,0
2016-09-28T00:12:27.598Z,0
2016-09-28T00:13:27.586Z,0
2016-09-28T00:14:27.888Z,0
2016-09-28T00:15:27.571Z,0
2016-09-28T00:16:27.874Z,0
2016-09-28T00:17:27.556Z,0
2016-09-28T00:18:27.549Z,0
2016-09-28T00:19:27.524Z,0
2016-09-28T00:20:27.511Z,0
2016-09-28T00:21:27.554Z,0
2016-09-28T00:22:27.488Z,0
2016-09-28T00:23:27.792Z,0
2016-09-28T00:24:27.471Z,0
2016-09-28T00:25:27.478Z,0
2016-09-28T00:26:28.080Z,0
2016-09-28T00:27:27.440Z,0
2016-09-28T00:28:27.429Z,0
2016-09-28T00:29:27.415Z,0
2016-09-28T00:30:27.715Z,0
2016-09-28T00:31:27.708Z,0
2016-09-28T00:32:27.696Z,0
2016-09-28T00:33:27.372Z,0
2016-09-28T00:34:27.369Z,0
2016-09-28T00:35:27.666Z,0
2016-09-28T00:36:27.655Z,0
2016-09-28T00:37:27.338Z,0
2016-09-28T00:38:27.319Z,0
2016-09-28T00:39:27.313Z,0
2016-09-28T00:40:27.313Z,0
2016-09-28T00:41:27.289Z,0
2016-09-28T00:42:27.591Z,0
2016-09-28T00:43:27.261Z,0
2016-09-28T00:44:27.253Z,0
2016-09-28T00:45:27.247Z,0
2016-09-28T00:46:27.230Z,0
2016-09-28T00:47:27.747Z,0
2016-09-28T00:48:27.227Z,0
2016-09-28T00:49:27.214Z,0
2016-09-28T00:50:27.188Z,0
2016-09-28T00:51:27.499Z,0
2016-09-28T00:52:27.499Z,0
2016-09-28T00:53:27.159Z,0
2016-09-28T00:54:27.144Z,0
2016-09-28T00:55:27.141Z,0
2016-09-28T00:56:27.123Z,0
2016-09-28T00:57:27.121Z,0
2016-09-28T00:58:28.054Z,0
2016-09-28T00:59:27.726Z,0
2016-09-28T01:00:27.082Z,0
2016-09-28T01:01:27.079Z,0
2016-09-28T01:02:27.370Z,0
2016-09-28T01:03:27.055Z,0
2016-09-28T01:04:27.038Z,0
2016-09-28T01:05:27.664Z,0
2016-09-28T01:06:27.339Z,0
2016-09-28T01:07:27.004Z,0
2016-09-28T01:08:27.000Z,0
2016-09-28T01:09:27.295Z,0
2016-09-28T01:10:26.974Z,0
2016-09-28T01:11:27.278Z,0
2016-09-28T01:12:27.265Z,0
2016-09-28T01:13:26.943Z,0
2016-09-28T01:14:26.939Z,0
2016-09-28T01:15:27.234Z,0
2016-09-28T01:16:26.912Z,0
2016-09-28T01:17:26.911Z,0
2016-09-28T01:18:26.890Z,0
2016-09-28T01:19:26.873Z,0
2016-09-28T01:20:27.179Z,0
2016-09-28T01:21:27.176Z,0
2016-09-28T01:22:27.163Z,0
2016-09-28T01:23:26.829Z,0
2016-09-28T01:24:27.136Z,0
2016-09-28T01:25:26.808Z,0
2016-09-28T01:26:26.799Z,0
2016-09-28T01:27:26.845Z,0
2016-09-28T01:28:26.772Z,0
2016-09-28T01:29:26.767Z,0
2016-09-28T01:30:26.764Z,0
2016-09-28T01:31:27.081Z,0
2016-09-28T01:32:26.749Z,0
2016-09-28T01:33:26.719Z,0
2016-09-28T01:34:27.345Z,0
2016-09-28T01:35:27.036Z,0
2016-09-28T01:36:27.009Z,0
2016-09-28T01:37:26.678Z,0
2016-09-28T01:38:26.669Z,0
2016-09-28T01:39:26.663Z,0
2016-09-28T01:40:26.649Z,0
2016-09-28T01:41:26.633Z,0
2016-09-28T01:42:26.946Z,0
2016-09-28T01:43:26.935Z,0
2016-09-28T01:44:26.920Z,0
2016-09-28T01:45:26.591Z,0
2016-09-28T01:46:26.897Z,0
2016-09-28T01:47:26.574Z,0
2016-09-28T01:48:27.214Z,0
2016-09-28T01:49:26.547Z,0
2016-09-28T01:50:26.851Z,0
2016-09-28T01:51:26.530Z,0
2016-09-28T01:52:26.521Z,0
2016-09-28T01:53:26.823Z,0
2016-09-28T01:54:26.518Z,0
2016-09-28T01:55:26.491Z,0
2016-09-28T01:56:26.794Z,0
2016-09-28T01:57:26.474Z,0
2016-09-28T01:58:26.470Z,0
2016-09-28T01:59:26.447Z,0
2016-09-28T02:00:26.440Z,0
2016-09-28T02:01:26.426Z,0
2016-09-28T02:02:26.799Z,0
2016-09-28T02:03:26.400Z,0
2016-09-28T02:04:26.396Z,0
2016-09-28T02:05:26.699Z,0
2016-09-28T02:06:26.686Z,0
2016-09-28T02:07:26.362Z,0
2016-09-28T02:08:26.355Z,0
2016-09-28T02:09:26.663Z,0
2016-09-28T02:10:26.335Z,0
2016-09-28T02:11:26.320Z,0
2016-09-28T02:12:26.313Z,0
2016-09-28T02:13:26.313Z,0
2016-09-28T02:14:26.289Z,0
2016-09-28T02:15:26.591Z,0
2016-09-28T02:16:26.279Z,0
2016-09-28T02:17:26.256Z,0
2016-09-28T02:18:26.251Z,0
2016-09-28T02:19:26.552Z,0
2016-09-28T02:20:26.226Z,0
2016-09-28T02:21:26.210Z,0
2016-09-28T02:22:26.211Z,0
2016-09-28T02:23:26.205Z,0
2016-09-28T02:24:26.183Z,0
2016-09-28T02:25:26.175Z,0
2016-09-28T02:26:26.161Z,0
2016-09-28T02:27:26.156Z,0
2016-09-28T02:28:26.149Z,0
2016-09-28T02:29:26.443Z,0
2016-09-28T02:30:26.124Z,0
2016-09-28T02:31:26.437Z,0
2016-09-28T02:32:26.105Z,0
2016-09-28T02:33:26.099Z,0
2016-09-28T02:34:26.079Z,0
2016-09-28T02:35:26.074Z,0
2016-09-28T02:36:26.061Z,0
2016-09-28T02:37:26.046Z,0
2016-09-28T02:38:26.047Z,0
2016-09-28T02:39:26.028Z,0
2016-09-28T02:40:26.332Z,0
2016-09-28T02:41:26.326Z,0
2016-09-28T02:42:26.004Z,0
2016-09-28T02:43:26.306Z,0
2016-09-28T02:44:25.977Z,0
2016-09-28T02:45:26.285Z,0
2016-09-28T02:46:25.982Z,0
2016-09-28T02:47:26.156Z,0
2016-09-28T02:48:25.932Z,0
2016-09-28T02:49:25.936Z,0
2016-09-28T02:50:26.231Z,0
2016-09-28T02:51:25.911Z,0
2016-09-28T02:52:25.900Z,0
2016-09-28T02:53:25.888Z,0
2016-09-28T02:54:25.883Z,0
2016-09-28T02:55:25.865Z,0
2016-09-28T02:56:25.851Z,0
2016-09-28T02:57:25.853Z,0
2016-09-28T02:58:25.832Z,0
2016-09-28T02:59:26.155Z,0
2016-09-28T03:00:26.162Z,0
2016-09-28T03:01:25.804Z,0
2016-09-28T03:02:25.798Z,0
2016-09-28T03:03:25.786Z,0
2016-09-28T03:04:25.775Z,0
2016-09-28T03:05:26.075Z,0
2016-09-28T03:06:26.067Z,0
2016-09-28T03:07:26.054Z,0
2016-09-28T03:08:26.042Z,0
2016-09-28T03:09:25.720Z,0
2016-09-28T03:10:26.076Z,0
2016-09-28T03:11:25.720Z,0
2016-09-28T03:12:26.015Z,0
2016-09-28T03:13:25.994Z,0
2016-09-28T03:14:26.317Z,0
2016-09-28T03:15:25.658Z,0
2016-09-28T03:16:25.653Z,0
2016-09-28T03:17:25.639Z,0
2016-09-28T03:18:25.939Z,0
2016-09-28T03:19:25.614Z,0
2016-09-28T03:20:25.608Z,0
2016-09-28T03:21:25.594Z,0
2016-09-28T03:22:25.899Z,0
2016-09-28T03:23:25.588Z,0
2016-09-28T03:24:25.566Z,0
2016-09-28T03:25:25.557Z,0
2016-09-28T03:26:25.541Z,0
2016-09-28T03:27:25.537Z,0
2016-09-28T03:28:25.865Z,0
2016-09-28T03:29:25.516Z,0
2016-09-28T03:30:25.818Z,0
2016-09-28T03:31:25.567Z,0
2016-09-28T03:32:25.499Z,0
2016-09-28T03:33:26.117Z,0
2016-09-28T03:34:25.796Z,0
2016-09-28T03:35:25.452Z,0
2016-09-28T03:36:25.753Z,0
2016-09-28T03:37:25.428Z,0
2016-09-28T03:38:25.413Z,0
2016-09-28T03:39:26.043Z,0
2016-09-28T03:40:26.028Z,0
2016-09-28T03:41:25.390Z,0
2016-09-28T03:42:25.379Z,0
2016-09-28T03:43:25.684Z,0
2016-09-28T03:44:25.350Z,0
2016-09-28T03:45:25.343Z,0
2016-09-28T03:46:25.647Z,0
2016-09-28T03:47:25.318Z,0
2016-09-28T03:48:25.310Z,0
2016-09-28T03:49:25.301Z,0
2016-09-28T03:50:25.286Z,0
2016-09-28T03:51:25.292Z,0
2016-09-28T03:52:25.263Z,0
2016-09-28T03:53:25.255Z,0
2016-09-28T03:54:25.265Z,0
2016-09-28T03:55:25.552Z,0
2016-09-28T03:56:25.227Z,0
2016-09-28T03:57:25.216Z,0
2016-09-28T03:58:25.204Z,0
2016-09-28T03:59:25.200Z,0
2016-09-28T04:00:25.183Z,0
2016-09-28T04:01:25.194Z,0
2016-09-28T04:02:25.165Z,0
2016-09-28T04:03:25.162Z,0
2016-09-28T04:04:25.141Z,0
2016-09-28T04:05:25.133Z,0
2016-09-28T04:06:25.126Z,0
2016-09-28T04:07:25.116Z,0
2016-09-28T04:08:25.097Z,0
2016-09-28T04:09:25.086Z,0
2016-09-28T04:10:25.085Z,0
2016-09-28T04:11:25.388Z,0
2016-09-28T04:12:25.371Z,0
2016-09-28T04:13:25.373Z,0
2016-09-28T04:14:25.033Z,0
2016-09-28T04:15:25.032Z,0
2016-09-28T04:16:25.013Z,0
2016-09-28T04:17:25.325Z,0
2016-09-28T04:18:24.991Z,0
2016-09-28T04:19:24.992Z,0
2016-09-28T04:20:25.598Z,0
2016-09-28T04:21:24.959Z,0
2016-09-28T04:22:25.261Z,0
2016-09-28T04:23:24.947Z,0
2016-09-28T04:24:24.924Z,0
2016-09-28T04:25:24.917Z,0
2016-09-28T04:26:25.597Z,0
2016-09-28T04:27:25.239Z,0
2016-09-28T04:28:25.548Z,0
2016-09-28T04:29:25.203Z,0
2016-09-28T04:30:24.866Z,0
2016-09-28T04:31:24.869Z,0
2016-09-28T04:32:24.848Z,0
2016-09-28T04:33:25.144Z,0
2016-09-28T04:34:24.885Z,0
2016-09-28T04:35:24.818Z,0
2016-09-28T04:36:24.806Z,0
2016-09-28T04:37:24.794Z,0
2016-09-28T04:38:24.780Z,0
2016-09-28T04:39:24.771Z,0
2016-09-28T04:40:24.785Z,0
2016-09-28T04:41:25.383Z,0
2016-09-28T04:42:24.746Z,0
2016-09-28T04:43:24.739Z,0
2016-09-28T04:44:24.758Z,0
2016-09-28T04:45:24.710Z,0
2016-09-28T04:46:24.708Z,0
2016-09-28T04:47:24.899Z,0
2016-09-28T04:48:24.993Z,0
2016-09-28T04:49:24.989Z,0
2016-09-28T04:50:24.655Z,0
2016-09-28T04:51:24.644Z,0
2016-09-28T04:52:24.639Z,0
2016-09-28T04:53:24.625Z,0
2016-09-28T04:54:24.629Z,0
2016-09-28T04:55:24.610Z,0
2016-09-28T04:56:24.619Z,0
2016-09-28T04:57:24.903Z,0
2016-09-28T04:58:24.582Z,0
2016-09-28T04:59:24.572Z,0
2016-09-28T05:00:24.876Z,4
2016-09-28T05:01:24.547Z,4
2016-09-28T05:02:24.544Z,4
2016-09-28T05:03:24.536Z,4
2016-09-28T05:04:24.522Z,4
2016-09-28T05:05:24.505Z,8
2016-09-28T05:06:24.502Z,8
2016-09-28T05:07:24.491Z,8
2016-09-28T05:08:24.470Z,8
2016-09-28T05:09:24.790Z,12
2016-09-28T05:10:24.786Z,12
2016-09-28T05:11:24.439Z,16
2016-09-28T05:12:24.455Z,20
2016-09-28T05:13:24.743Z,24
2016-09-28T05:14:24.412Z,24
2016-09-28T05:15:24.719Z,32
2016-09-28T05:16:24.400Z,36
2016-09-28T05:17:24.391Z,36
2016-09-28T05:18:24.697Z,44
2016-09-28T05:19:24.364Z,48
2016-09-28T05:20:24.666Z,52
2016-09-28T05:21:24.661Z,60
2016-09-28T05:22:24.651Z,68
2016-09-28T05:23:24.314Z,76
2016-09-28T05:24:24.309Z,88
2016-09-28T05:25:24.298Z,92
2016-09-28T05:26:24.282Z,104
2016-09-28T05:27:24.591Z,108
2016-09-28T05:28:24.265Z,112
2016-09-28T05:29:24.251Z,116
2016-09-28T05:30:24.257Z,124
2016-09-28T05:31:24.238Z,132
2016-09-28T05:32:24.220Z,132
2016-09-28T05:33:24.534Z,140
2016-09-28T05:34:24.209Z,144
2016-09-28T05:35:24.193Z,140
2016-09-28T05:36:24.184Z,132
2016-09-28T05:37:24.178Z,128
2016-09-28T05:38:24.155Z,140
2016-09-28T05:39:24.781Z,140
2016-09-28T05:40:25.084Z,144
2016-09-28T05:41:24.127Z,160
2016-09-28T05:42:24.123Z,196
2016-09-28T05:43:24.112Z,236
2016-09-28T05:44:24.097Z,264
2016-09-28T05:45:24.408Z,280
2016-09-28T05:46:24.084Z,304
2016-09-28T05:47:24.081Z,352
2016-09-28T05:48:24.413Z,408
2016-09-28T05:49:24.696Z,460
2016-09-28T05:50:24.057Z,468
2016-09-28T05:51:24.033Z,536
2016-09-28T05:52:24.020Z,584
2016-09-28T05:53:24.011Z,600
2016-09-28T05:54:24.000Z,544
2016-09-28T05:55:23.992Z,516
2016-09-28T05:56:23.978Z,560
2016-09-28T05:57:23.969Z,600
2016-09-28T05:58:24.267Z,608
2016-09-28T05:59:24.269Z,620
2016-09-28T06:00:23.991Z,680
2016-09-28T06:01:23.922Z,716
2016-09-28T06:02:23.917Z,792
2016-09-28T06:03:23.905Z,856
2016-09-28T06:04:24.208Z,892
2016-09-28T06:05:23.891Z,976
2016-09-28T06:06:23.879Z,1132
2016-09-28T06:07:23.861Z,1248
2016-09-28T06:08:23.876Z,1324
2016-09-28T06:09:23.847Z,1376
2016-09-28T06:10:23.858Z,1348
2016-09-28T06:11:23.829Z,1332
2016-09-28T06:12:24.133Z,1276
2016-09-28T06:13:23.810Z,1380
2016-09-28T06:14:23.800Z,1396
2016-09-28T06:15:23.784Z,1440
2016-09-28T06:16:24.098Z,1424
2016-09-28T06:17:23.775Z,1484
2016-09-28T06:18:23.766Z,1636
2016-09-28T06:19:23.746Z,1632
2016-09-28T06:20:23.735Z,1520
2016-09-28T06:21:23.726Z,1564
2016-09-28T06:22:23.715Z,1700
2016-09-28T06:23:23.710Z,1872
2016-09-28T06:24:24.023Z,1928
2016-09-28T06:25:23.688Z,1844
2016-09-28T06:26:23.997Z,1812
2016-09-28T06:27:23.984Z,1988
2016-09-28T06:28:23.665Z,2020
2016-09-28T06:29:23.966Z,1760
2016-09-28T06:30:23.635Z,1708
2016-09-28T06:31:23.630Z,1724
2016-09-28T06:32:23.617Z,1700
2016-09-28T06:33:23.610Z,1596
2016-09-28T06:34:23.603Z,1620
2016-09-28T06:35:23.585Z,1808
2016-09-28T06:36:23.578Z,2092
2016-09-28T06:37:23.573Z,1988
2016-09-28T06:38:23.557Z,1772
2016-09-28T06:39:23.553Z,1860
2016-09-28T06:40:23.542Z,2288
2016-09-28T06:41:23.533Z,2236
2016-09-28T06:42:23.521Z,2252
2016-09-28T06:43:23.515Z,1992
2016-09-28T06:44:23.497Z,1692
2016-09-28T06:45:23.808Z,1452
2016-09-28T06:46:23.488Z,1320
2016-09-28T06:47:23.667Z,1640
2016-09-28T06:48:23.460Z,1764
2016-09-28T06:49:23.453Z,1772
2016-09-28T06:50:23.440Z,2004
2016-09-28T06:51:23.436Z,2220
2016-09-28T06:52:23.425Z,2684
2016-09-28T06:53:23.409Z,2708
2016-09-28T06:54:23.719Z,2788
2016-09-28T06:55:23.407Z,2268
2016-09-28T06:56:23.383Z,2148
2016-09-28T06:57:23.691Z,2328
2016-09-28T06:58:23.362Z,2268
2016-09-28T06:59:23.359Z,2288
2016-09-28T07:00:23.345Z,2116
2016-09-28T07:01:23.330Z,2184
2016-09-28T07:02:23.328Z,2560
2016-09-28T07:03:23.315Z,2580
2016-09-28T07:04:23.315Z,2364
2016-09-28T07:05:23.300Z,2384
2016-09-28T07:06:23.933Z,2376
2016-09-28T07:07:23.272Z,2216
2016-09-28T07:08:23.272Z,2288
2016-09-28T07:09:23.271Z,2292
2016-09-28T07:10:23.563Z,2252
2016-09-28T07:11:23.883Z,2280
2016-09-28T07:12:23.231Z,2536
2016-09-28T07:13:23.214Z,2468
2016-09-28T07:14:23.210Z,2424
2016-09-28T07:15:23.513Z,2384
2016-09-28T07:16:23.214Z,2260
2016-09-28T07:17:23.189Z,2108
2016-09-28T07:18:23.508Z,2312
2016-09-28T07:19:23.169Z,1884
2016-09-28T07:20:23.159Z,1712
2016-09-28T07:21:23.150Z,1696
2016-09-28T07:22:23.137Z,1660
2016-09-28T07:23:23.134Z,1772
2016-09-28T07:24:23.109Z,1636
2016-09-28T07:25:23.107Z,1708
2016-09-28T07:26:23.098Z,1684
2016-09-28T07:27:23.079Z,1688
2016-09-28T07:28:23.075Z,1876
2016-09-28T07:29:23.061Z,1844
2016-09-28T07:30:23.056Z,1832
2016-09-28T07:31:23.052Z,1920
2016-09-28T07:32:23.037Z,2072
2016-09-28T07:33:23.038Z,2276
2016-09-28T07:34:23.329Z,2076
2016-09-28T07:35:23.009Z,2028
2016-09-28T07:36:23.316Z,2368
2016-09-28T07:37:22.985Z,2584
2016-09-28T07:38:22.973Z,2408
2016-09-28T07:39:23.281Z,2412
2016-09-28T07:40:22.960Z,2240
2016-09-28T07:41:22.950Z,2448
2016-09-28T07:42:22.942Z,2824
2016-09-28T07:43:23.241Z,3080
2016-09-28T07:44:22.918Z,3452
2016-09-28T07:45:22.920Z,3876
2016-09-28T07:46:23.532Z,3652
2016-09-28T07:47:22.898Z,3440
2016-09-28T07:48:22.886Z,3924
2016-09-28T07:49:22.870Z,3652
2016-09-28T07:50:22.865Z,3712
2016-09-28T07:51:22.872Z,4168
2016-09-28T07:52:22.854Z,3816
2016-09-28T07:53:22.840Z,3732
2016-09-28T07:54:22.822Z,3492
2016-09-28T07:55:22.853Z,3440
2016-09-28T07:56:22.819Z,3772
2016-09-28T07:57:22.837Z,4256
2016-09-28T07:58:22.808Z,3656
2016-09-28T07:59:22.777Z,3160
2016-09-28T08:00:22.778Z,3248
2016-09-28T08:01:23.076Z,2920
2016-09-28T08:02:23.066Z,2732
2016-09-28T08:03:23.054Z,3120
2016-09-28T08:04:22.753Z,3116
2016-09-28T08:05:22.713Z,2884
2016-09-28T08:06:22.709Z,3408
2016-09-28T08:07:22.701Z,3648
2016-09-28T08:08:23.003Z,3628
2016-09-28T08:09:23.016Z,3144
2016-09-28T08:10:22.986Z,3248
2016-09-28T08:11:23.290Z,4204
2016-09-28T08:12:22.702Z,5296
2016-09-28T08:13:22.967Z,4940
2016-09-28T08:14:22.631Z,5140
2016-09-28T08:15:22.635Z,4252
2016-09-28T08:16:22.610Z,3996
2016-09-28T08:17:22.601Z,3876
2016-09-28T08:18:22.597Z,4320
2016-09-28T08:19:22.597Z,4868
2016-09-28T08:20:22.574Z,3928
2016-09-28T08:21:22.626Z,3848
2016-09-28T08:22:22.567Z,3832
2016-09-28T08:23:22.560Z,3696
2016-09-28T08:24:22.856Z,3480
2016-09-28T08:25:22.541Z,4340
2016-09-28T08:26:22.844Z,4524
2016-09-28T08:27:22.527Z,4104
2016-09-28T08:28:22.817Z,3504
2016-09-28T08:29:22.496Z,3576
2016-09-28T08:30:22.487Z,3704
2016-09-28T08:31:22.790Z,3856
2016-09-28T08:32:22.780Z,4364
2016-09-28T08:33:22.770Z,4404
2016-09-28T08:34:22.453Z,3248
2016-09-28T08:35:22.436Z,3540
2016-09-28T08:36:22.743Z,4760
2016-09-28T08:37:22.425Z,4504
2016-09-28T08:38:22.416Z,4620
2016-09-28T08:39:22.712Z,4892
2016-09-28T08:40:22.702Z,5092
2016-09-28T08:41:22.380Z,4248
2016-09-28T08:42:22.378Z,6348
2016-09-28T08:43:22.682Z,6756
2016-09-28T08:44:22.351Z,7476
2016-09-28T08:45:22.348Z,7288
2016-09-28T08:46:22.334Z,7292
2016-09-28T08:47:22.726Z,7372
2016-09-28T08:48:22.324Z,8040
2016-09-28T08:49:22.307Z,7636
2016-09-28T08:50:22.293Z,7660
2016-09-28T08:51:22.293Z,9132
2016-09-28T08:52:22.283Z,9032
2016-09-28T08:53:22.586Z,8456
2016-09-28T08:54:22.282Z,6772
2016-09-28T08:55:22.255Z,5496
2016-09-28T08:56:22.555Z,6564
2016-09-28T08:57:22.238Z,7952
2016-09-28T08:58:22.543Z,8400
2016-09-28T08:59:22.216Z,8796
2016-09-28T09:00:22.531Z,8176
2016-09-28T09:01:22.211Z,7236
2016-09-28T09:02:22.507Z,6112
2016-09-28T09:03:22.192Z,7036
2016-09-28T09:04:22.172Z,7656
2016-09-28T09:05:22.169Z,8400
2016-09-28T09:06:22.161Z,6820
2016-09-28T09:07:22.148Z,6028
2016-09-28T09:08:22.144Z,7868
2016-09-28T09:09:22.140Z,8592
2016-09-28T09:10:22.123Z,8712
2016-09-28T09:11:22.119Z,8608
2016-09-28T09:12:22.110Z,7408
2016-09-28T09:13:22.427Z,8048
2016-09-28T09:14:22.095Z,6808
2016-09-28T09:15:22.086Z,6028
2016-09-28T09:16:22.072Z,5620
2016-09-28T09:17:22.065Z,6100
2016-09-28T09:18:22.063Z,6968
2016-09-28T09:19:22.376Z,8412
2016-09-28T09:20:22.051Z,8196
2016-09-28T09:21:22.029Z,8208
2016-09-28T09:22:22.353Z,8980
2016-09-28T09:23:22.339Z,9244
2016-09-28T09:24:22.334Z,9280
2016-09-28T09:25:22.309Z,8612
2016-09-28T09:26:21.994Z,9576
2016-09-28T09:27:21.979Z,10216
2016-09-28T09:28:21.971Z,10532
2016-09-28T09:29:22.283Z,10924
2016-09-28T09:30:21.954Z,12392
2016-09-28T09:31:21.970Z,12664
2016-09-28T09:32:21.942Z,12024
2016-09-28T09:33:21.926Z,13572
2016-09-28T09:34:21.926Z,13704
2016-09-28T09:35:22.243Z,14400
2016-09-28T09:36:21.904Z,14776
2016-09-28T09:37:21.899Z,15160
2016-09-28T09:38:22.209Z,13608
2016-09-28T09:39:21.883Z,14216
2016-09-28T09:40:21.890Z,14140
2016-09-28T09:41:21.897Z,13880
2016-09-28T09:42:22.545Z,13668
2016-09-28T09:43:21.860Z,13496
2016-09-28T09:44:22.165Z,12248
2016-09-28T09:45:21.842Z,12632
2016-09-28T09:46:21.832Z,12560
2016-09-28T09:47:21.842Z,12736
2016-09-28T09:48:21.823Z,13388
2016-09-28T09:49:21.818Z,13084
2016-09-28T09:50:21.833Z,13352
2016-09-28T09:51:21.791Z,13164
2016-09-28T09:52:21.796Z,14136
2016-09-28T09:53:21.775Z,12860
2016-09-28T09:54:22.140Z,12992
2016-09-28T09:55:21.761Z,13716
2016-09-28T09:56:21.759Z,14560
2016-09-28T09:57:21.748Z,12604
2016-09-28T09:58:21.742Z,14584
2016-09-28T09:59:22.053Z,13776
2016-09-28T10:00:22.047Z,13600
2016-09-28T10:01:21.723Z,12380
2016-09-28T10:02:22.024Z,10480
2016-09-28T10:03:22.015Z,11440
2016-09-28T10:04:21.692Z,11468
2016-09-28T10:05:22.004Z,11948
2016-09-28T10:06:21.704Z,12444
2016-09-28T10:07:21.769Z,13656
2016-09-28T10:08:21.670Z,14552
2016-09-28T10:09:21.997Z,14616
2016-09-28T10:10:21.702Z,14388
2016-09-28T10:11:21.957Z,14756
2016-09-28T10:12:22.271Z,13892
2016-09-28T10:13:21.963Z,13584
2016-09-28T10:14:21.932Z,13752
2016-09-28T10:15:21.621Z,13700
2016-09-28T10:16:21.604Z,13904
2016-09-28T10:17:21.612Z,13632
2016-09-28T10:18:21.928Z,13188
2016-09-28T10:19:21.578Z,13540
2016-09-28T10:20:21.910Z,11092
2016-09-28T10:21:21.914Z,12944
2016-09-28T10:22:21.570Z,11776
2016-09-28T10:23:21.559Z,10284
2016-09-28T10:24:21.548Z,10096
2016-09-28T10:25:21.551Z,10340
2016-09-28T10:26:21.552Z,8776
2016-09-28T10:27:21.572Z,8384
2016-09-28T10:28:21.528Z,9840
2016-09-28T10:29:21.513Z,9512
2016-09-28T10:30:21.516Z,8400
2016-09-28T10:31:21.507Z,10044
2016-09-28T10:32:21.488Z,10668
2016-09-28T10:33:21.517Z,12192
2016-09-28T10:34:21.484Z,10940
2016-09-28T10:35:21.476Z,9492
2016-09-28T10:36:21.476Z,8560
2016-09-28T10:37:21.776Z,9544
2016-09-28T10:38:21.450Z,7852
2016-09-28T10:39:21.433Z,8520
2016-09-28T10:40:21.748Z,7212
2016-09-28T10:41:21.427Z,6276
2016-09-28T10:42:21.764Z,8000
2016-09-28T10:43:21.431Z,10256
2016-09-28T10:44:21.733Z,6512
2016-09-28T10:45:21.403Z,6440
2016-09-28T10:46:21.392Z,11112
2016-09-28T10:47:21.581Z,14632
2016-09-28T10:48:21.683Z,12076
2016-09-28T10:49:21.364Z,8328
2016-09-28T10:50:21.983Z,9368
2016-09-28T10:51:21.656Z,12916
2016-09-28T10:52:21.660Z,13772
2016-09-28T10:53:21.329Z,17184
2016-09-28T10:54:21.321Z,15256
2016-09-28T10:55:21.324Z,15080
2016-09-28T10:56:21.623Z,13660
2016-09-28T10:57:21.297Z,13504
2016-09-28T10:58:21.293Z,12896
2016-09-28T10:59:21.290Z,17056
2016-09-28T11:00:21.905Z,17600
2016-09-28T11:01:21.291Z,14956
2016-09-28T11:02:21.269Z,14300
2016-09-28T11:03:21.256Z,16424
2016-09-28T11:04:21.278Z,16232
2016-09-28T11:05:21.259Z,16760
2016-09-28T11:06:21.239Z,18848
2016-09-28T11:07:21.543Z,21056
2016-09-28T11:08:21.232Z,18240
2016-09-28T11:09:21.214Z,20960
2016-09-28T11:10:21.207Z,19840
2016-09-28T11:11:21.200Z,19808
2016-09-28T11:12:21.200Z,19712
2016-09-28T11:13:21.187Z,18048
2016-09-28T11:14:21.184Z,16016
2016-09-28T11:15:21.487Z,15064
2016-09-28T11:16:21.172Z,14132
2016-09-28T11:17:21.475Z,13852
2016-09-28T11:18:21.156Z,15468
2016-09-28T11:19:21.465Z,17440
2016-09-28T11:20:21.148Z,18848
2016-09-28T11:21:21.143Z,15588
2016-09-28T11:22:21.451Z,19072
2016-09-28T11:23:21.132Z,12184
2016-09-28T11:24:21.123Z,10660
2016-09-28T11:25:21.115Z,15252
2016-09-28T11:26:21.105Z,20384
2016-09-28T11:27:21.435Z,31328
2016-09-28T11:28:21.404Z,16704
2016-09-28T11:29:21.401Z,14176
2016-09-28T11:30:21.397Z,17664
2016-09-28T11:31:21.395Z,15956
2016-09-28T11:32:21.068Z,13668
2016-09-28T11:33:21.381Z,20832
2016-09-28T11:34:21.375Z,14836
2016-09-28T11:35:21.047Z,34656
2016-09-28T11:36:21.046Z,18432
2016-09-28T11:37:21.056Z,25856
2016-09-28T11:38:21.026Z,22976
2016-09-28T11:39:21.042Z,19168
2016-09-28T11:40:21.343Z,13024
2016-09-28T11:41:21.012Z,13728
2016-09-28T11:42:21.011Z,17344
2016-09-28T11:43:21.002Z,27104
2016-09-28T11:44:21.010Z,22272
2016-09-28T11:45:20.993Z,21728
2016-09-28T11:46:21.301Z,35936
2016-09-28T11:47:20.975Z,26272
2016-09-28T11:48:20.976Z,15844
2016-09-28T11:49:20.974Z,24768
2016-09-28T11:50:20.974Z,27296
2016-09-28T11:51:21.277Z,22976
2016-09-28T11:52:20.955Z,24896
2016-09-28T11:53:20.971Z,28128
2016-09-28T11:54:21.276Z,24096
2016-09-28T11:55:20.946Z,24928
2016-09-28T11:56:20.935Z,13424
2016-09-28T11:57:21.243Z,26784
2016-09-28T11:58:21.560Z,16736
2016-09-28T11:59:20.942Z,24000
2016-09-28T12:00:20.916Z,26816
2016-09-28T12:01:21.537Z,25504
2016-09-28T12:02:21.536Z,19264
2016-09-28T12:03:21.219Z,21792
2016-09-28T12:04:20.922Z,20864
2016-09-28T12:05:20.939Z,21312
2016-09-28T12:06:21.199Z,20512
2016-09-28T12:07:20.884Z,18880
2016-09-28T12:08:20.881Z,21184
2016-09-28T12:09:21.187Z,22336
2016-09-28T12:10:20.873Z,24352
2016-09-28T12:11:20.860Z,22816
2016-09-28T12:12:20.855Z,21088
2016-09-28T12:13:20.843Z,21888
2016-09-28T12:14:20.840Z,21664
2016-09-28T12:15:21.152Z,19936
2016-09-28T12:16:21.145Z,21664
2016-09-28T12:17:20.833Z,22656
2016-09-28T12:18:21.154Z,19904
2016-09-28T12:19:21.128Z,19296
2016-09-28T12:20:21.440Z,19808
2016-09-28T12:21:20.802Z,22144
2016-09-28T12:22:21.429Z,22176
2016-09-28T12:23:20.805Z,23488
2016-09-28T12:24:20.784Z,25248
2016-09-28T12:25:20.773Z,24512
2016-09-28T12:26:21.126Z,26400
2016-09-28T12:27:20.789Z,29152
2016-09-28T12:28:21.083Z,27904
2016-09-28T12:29:20.759Z,24704
2016-09-28T12:30:20.754Z,27008
2016-09-28T12:31:20.750Z,33312
2016-09-28T12:32:21.066Z,28704
2016-09-28T12:33:20.794Z,30240
2016-09-28T12:34:20.740Z,30368
2016-09-28T12:35:20.738Z,25344
2016-09-28T12:36:21.038Z,29824
2016-09-28T12:37:21.037Z,42624
2016-09-28T12:38:20.722Z,39104
2016-09-28T12:39:20.707Z,35840
2016-09-28T12:40:20.708Z,38368
2016-09-28T12:41:21.018Z,34400
2016-09-28T12:42:20.702Z,35648
2016-09-28T12:43:20.691Z,46560
2016-09-28T12:44:21.021Z,46304
2016-09-28T12:45:20.682Z,41632
2016-09-28T12:46:20.682Z,42688
2016-09-28T12:47:20.988Z,36672
2016-09-28T12:48:21.233Z,43264
2016-09-28T12:49:20.665Z,39808
2016-09-28T12:50:20.658Z,31968
2016-09-28T12:51:20.663Z,43360
2016-09-28T12:52:20.647Z,54816
2016-09-28T12:53:20.966Z,48128
2016-09-28T12:54:20.846Z,39968
2016-09-28T12:55:20.637Z,26592
2016-09-28T12:56:20.950Z,27616
2016-09-28T12:57:20.640Z,28864
2016-09-28T12:58:20.653Z,28224
2016-09-28T12:59:21.030Z,30688
2016-09-28T13:00:20.621Z,40928
2016-09-28T13:01:20.616Z,33792
2016-09-28T13:02:20.924Z,25824
2016-09-28T13:03:20.609Z,22944
2016-09-28T13:04:20.922Z,23680
2016-09-28T13:05:20.611Z,22912
2016-09-28T13:06:20.906Z,23040
2016-09-28T13:07:20.607Z,22592
2016-09-28T13:08:20.588Z,21568
2016-09-28T13:09:20.898Z,19168
2016-09-28T13:10:20.581Z,18528
2016-09-28T13:11:20.577Z,19200
2016-09-28T13:12:20.578Z,16928
2016-09-28T13:13:20.567Z,14552
2016-09-28T13:14:20.886Z,12304
2016-09-28T13:15:20.567Z,12176
2016-09-28T13:16:20.874Z,10748
2016-09-28T13:17:20.553Z,9920
2016-09-28T13:18:20.545Z,9664
2016-09-28T13:19:21.179Z,9224
2016-09-28T13:20:20.537Z,9520
2016-09-28T13:21:20.865Z,9756
2016-09-28T13:22:20.527Z,10436
2016-09-28T13:23:20.531Z,10448
2016-09-28T13:24:20.834Z,10484
2016-09-28T13:25:20.508Z,10920
2016-09-28T13:26:20.830Z,11228
2016-09-28T13:27:20.826Z,11920
2016-09-28T13:28:20.551Z,12796
2016-09-28T13:29:20.803Z,11444
2016-09-28T13:30:20.482Z,10000
2016-09-28T13:31:20.478Z,9532
2016-09-28T13:32:20.811Z,9464
2016-09-28T13:33:20.788Z,9652
2016-09-28T13:34:20.772Z,9972
2016-09-28T13:35:20.773Z,10536
2016-09-28T13:36:20.451Z,11548
2016-09-28T13:37:20.765Z,14280
2016-09-28T13:38:20.453Z,14080
2016-09-28T13:39:20.432Z,11964
2016-09-28T13:40:20.426Z,14360
2016-09-28T13:41:20.423Z,17952
2016-09-28T13:42:20.426Z,13728
2016-09-28T13:43:20.407Z,10120
2016-09-28T13:44:20.398Z,8604